Soaring Guidance
Issued by NWS Reno, NV

Home | Current Version | Previous Version | Text Only | Print | Product List | Glossary On
Versions: 1 2 3 4 5 6 7 8 9 10 11
000
UXUS97 KREV 041348
SRGREV

SOARING FORECAST
NATIONAL WEATHER SERVICE - RENO NV
700 AM PDT TUE AUG 4 2015

THIS SOARING FORECAST IS FOR THE EASTERN SIERRA AND WESTERN NEVADA
WITH SPECIFIC INDICES FOR THE GREATER RENO AREA.

THIS FORECAST IS PREPARED DAILY BY 700 AM AND IS NOT UPDATED.

FOR CURRENT FLIGHT CONDITIONS...FORECASTS...AND ADVISORIES...ACCESS
YOUR LOCAL BRIEFING OUTLET OR FLIGHT SERVICE STATION.

*******************************************************************
FORECASTED LOCAL INDICES FOR RENO:        TODAY     YESTERDAY
FORECASTED MAX TEMP AT RENO (DEG F).....     92          85
FORECASTED TRIGGER TEMPERATURE (DEG F)..     77          76
   EXCEEDED YESTERDAY BY 1055 AM PDT
FORECASTED MAXIMUM ALTITUDE (FT MSL)....  18000       16700
FORECASTED SOARING INDEX (FPM)..........   1203        1041
FORECASTED K-INDEX.........VALID 18Z....     12          24
FORECASTED K-INDEX.........VALID 00Z....     21          24
FORECASTED LIFTED INDEX....VALID 18Z....      4           1
FORECASTED LIFTED INDEX....VALID 00Z....      3           2

AFTERNOON WINDS ALOFT FORECAST
MSL (FT) WIND/TEMP
9000  2611/+16
10000 2309/+13
12000 2206/+08
14000 2009/+02
16000 1913/-03
18000 1924/-09
24000 2040/-20
30000 2370/-36
34000 2289/-45
39000 2390/-58

SLIDE MOUNTAIN DATA:
     DATE       TIME     TEMP  DEWPT   RH         WIND (MPH)
                        (F)   (F)           | DIR  SPEED GUST
2015-08-04    05:50      51    23     21    | 238    6    9
2015-08-04    05:30      51    23     21    | 239    6   11
2015-08-04    05:20      51    22     19    | 239    6   11
2015-08-04    05:00      52    22     19    | 240    9   15

RENO TAF FORECAST:
KRNO 041136Z 0412/0512 VRB04KT P6SM SCT200
     FM042000 16008KT P6SM SCT120 BKN200
     FM042200 29014G23KT P6SM SCT120 BKN200
     FM050500 VRB04KT P6SM SCT100 BKN150

CARSON CITY TAF FORECAST:
KCXP 041136Z 0412/0512 VRB04KT P6SM SCT200
     FM041900 10009KT P6SM SCT120 BKN200
     FM042100 25013G22KT P6SM SCT120 BKN200
     FM050400 VRB04KT P6SM SCT100 BKN150

OUTLOOK FOR THE RENO-CARSON CITY-MINDEN AREA:
.WEDNESDAY...SUNNY. HIGHS 86 TO 91. LIGHT WINDS BECOMING WEST
10 TO 15 MPH IN THE AFTERNOON.

SUNRISE AND SUNSET
AUGUST  4 2015........SUNRISE   601 AM PDT   SUNSET   809 PM PDT
AUGUST  5 2015........SUNRISE   602 AM PDT   SUNSET   807 PM PDT


USA.gov is the U.S. government's official web portal to all federal, state and local government web resources and services.